Hlavní strana
METAR-TAF:

METAR-TAF

Letiště :

Džíbútí, Džibutsko

zeměpisná šířka: 11-33N, zeměpisná délka: 043-10E, výška: 49 m

Aktuální stav počasí

Zpráva byla vytvořena před 7 hodinami a 1 minutami, v 11:00 UTC
Východní vítr 11 kt
Teplota 33°C
Vlhkost vzduchu 67%
Tlak 1009 hPa
Viditelnost 10 km a více
Polojasno ve výšce 2300 ft

METAR: HDAM 241100Z 08011KT 9999 SCT023 33/26 Q1009

Čas: 21:01 (18:01 UTC)

Předpověď počasí

Zpráva byla vytvořena před 7 hodinami a 1 minutami, v 11:00 UTC
Předpověď platná od 24 v 12 UTC do 25 v 12 UTC
Východní vítr 11 kt
Viditelnost 10 km a více
Polojasno ve výšce 2300 ft
Změna
od 24 v 15 UTC do 24 v 18 UTC
Skoro jasno ve výšce 3000 ft, Cumulonimbus.
Změna
od 25 v 00 UTC do 25 v 06 UTC
vítr z různých směrů 3 kt
Polojasno ve výšce 2000 ft

TAF: HDAM 241100Z 2412/2512 10011KT 9999 SCT023 BECMG 2415/2418 FEW030CB BECMG 2500/2506 VRB03KT SCT020

Stav a předpovědi počasí z více než 4 000 letišť (zprávy METAR a TAF).

Červené a žluté tečky na mapě představují dostupné meteorologické stanice.

Když kurzor umístíte na tečku, zobrazí se název stanice.

Pak kliknutím zobrazíte stav a předpověď počasí.

Chcete-li změnit mapu, kliknutím na zelené tlačítko se znaménkem +mapu přiblížíte, kliknutím na zelené tlačítko se znaménkem – mapu oddálíte a kliknutím na zelené šipky přejdete na sousední mapy.


METAR-TAF: